sensor_id;sensor_type;location;lat;lon;timestamp;P1;durP1;ratioP1;P2;durP2;ratioP2
75680;SDS011;64294;49.176;16.626;2023-07-13T00:01:30;9.82;;;6.65;;
75680;SDS011;64294;49.176;16.626;2023-07-13T00:03:56;7.93;;;5.70;;
75680;SDS011;64294;49.176;16.626;2023-07-13T00:06:22;11.07;;;5.55;;
75680;SDS011;64294;49.176;16.626;2023-07-13T00:08:47;11.80;;;7.15;;
75680;SDS011;64294;49.176;16.626;2023-07-13T00:11:14;9.43;;;6.85;;
75680;SDS011;64294;49.176;16.626;2023-07-13T00:13:40;12.55;;;6.50;;
75680;SDS011;64294;49.176;16.626;2023-07-13T00:16:07;9.55;;;6.20;;
75680;SDS011;64294;49.176;16.626;2023-07-13T00:18:33;10.52;;;6.13;;
75680;SDS011;64294;49.176;16.626;2023-07-13T00:20:59;10.30;;;6.28;;
75680;SDS011;64294;49.176;16.626;2023-07-13T00:23:36;12.48;;;6.10;;
75680;SDS011;64294;49.176;16.626;2023-07-13T00:26:05;10.48;;;6.10;;
75680;SDS011;64294;49.176;16.626;2023-07-13T00:28:32;10.93;;;5.95;;
75680;SDS011;64294;49.176;16.626;2023-07-13T00:30:58;8.93;;;6.00;;
75680;SDS011;64294;49.176;16.626;2023-07-13T00:33:24;11.23;;;6.15;;
75680;SDS011;64294;49.176;16.626;2023-07-13T00:35:53;12.55;;;6.28;;
75680;SDS011;64294;49.176;16.626;2023-07-13T00:38:19;10.80;;;6.50;;
75680;SDS011;64294;49.176;16.626;2023-07-13T00:40:44;11.38;;;6.38;;
75680;SDS011;64294;49.176;16.626;2023-07-13T00:43:14;12.55;;;6.05;;
75680;SDS011;64294;49.176;16.626;2023-07-13T00:48:07;10.63;;;6.90;;
75680;SDS011;64294;49.176;16.626;2023-07-13T00:50:33;9.60;;;7.05;;
75680;SDS011;64294;49.176;16.626;2023-07-13T00:52:58;14.23;;;7.47;;
75680;SDS011;64294;49.176;16.626;2023-07-13T00:55:24;24.77;;;7.57;;
75680;SDS011;64294;49.176;16.626;2023-07-13T00:57:50;28.38;;;7.25;;
75680;SDS011;64294;49.176;16.626;2023-07-13T01:00:15;26.88;;;7.80;;
75680;SDS011;64294;49.176;16.626;2023-07-13T01:02:42;19.33;;;6.95;;
75680;SDS011;64294;49.176;16.626;2023-07-13T01:05:10;19.00;;;7.32;;
75680;SDS011;64294;49.176;16.626;2023-07-13T01:07:40;12.70;;;6.78;;
75680;SDS011;64294;49.176;16.626;2023-07-13T01:10:09;18.42;;;7.00;;
75680;SDS011;64294;49.176;16.626;2023-07-13T01:12:35;16.83;;;6.97;;
75680;SDS011;64294;49.176;16.626;2023-07-13T01:15:01;13.27;;;7.07;;
75680;SDS011;64294;49.176;16.626;2023-07-13T01:17:28;15.65;;;7.22;;
75680;SDS011;64294;49.176;16.626;2023-07-13T01:19:54;16.80;;;7.50;;
75680;SDS011;64294;49.176;16.626;2023-07-13T01:22:21;13.90;;;7.78;;
75680;SDS011;64294;49.176;16.626;2023-07-13T01:24:52;15.05;;;6.97;;
75680;SDS011;64294;49.176;16.626;2023-07-13T01:27:22;12.07;;;7.00;;
75680;SDS011;64294;49.176;16.626;2023-07-13T01:29:51;11.93;;;7.32;;
75680;SDS011;64294;49.176;16.626;2023-07-13T01:32:20;12.88;;;7.38;;
75680;SDS011;64294;49.176;16.626;2023-07-13T01:34:52;10.63;;;6.70;;
75680;SDS011;64294;49.176;16.626;2023-07-13T01:37:22;13.43;;;7.60;;
75680;SDS011;64294;49.176;16.626;2023-07-13T01:39:49;14.65;;;6.80;;
75680;SDS011;64294;49.176;16.626;2023-07-13T01:42:14;12.95;;;7.03;;
75680;SDS011;64294;49.176;16.626;2023-07-13T01:44:40;12.98;;;6.60;;
75680;SDS011;64294;49.176;16.626;2023-07-13T01:47:06;12.30;;;7.22;;
75680;SDS011;64294;49.176;16.626;2023-07-13T01:49:31;16.42;;;7.50;;
75680;SDS011;64294;49.176;16.626;2023-07-13T01:51:57;14.65;;;7.45;;
75680;SDS011;64294;49.176;16.626;2023-07-13T01:54:22;13.02;;;7.38;;
75680;SDS011;64294;49.176;16.626;2023-07-13T01:56:48;12.60;;;7.07;;
75680;SDS011;64294;49.176;16.626;2023-07-13T01:59:13;15.85;;;7.78;;
75680;SDS011;64294;49.176;16.626;2023-07-13T02:01:38;14.60;;;6.47;;
75680;SDS011;64294;49.176;16.626;2023-07-13T02:04:04;12.45;;;6.97;;
75680;SDS011;64294;49.176;16.626;2023-07-13T02:06:29;10.40;;;6.90;;
75680;SDS011;64294;49.176;16.626;2023-07-13T02:08:55;13.45;;;7.43;;
75680;SDS011;64294;49.176;16.626;2023-07-13T02:11:20;11.98;;;6.25;;
75680;SDS011;64294;49.176;16.626;2023-07-13T02:13:46;8.45;;;6.10;;
75680;SDS011;64294;49.176;16.626;2023-07-13T02:16:11;10.98;;;7.10;;
75680;SDS011;64294;49.176;16.626;2023-07-13T02:18:37;9.73;;;6.13;;
75680;SDS011;64294;49.176;16.626;2023-07-13T02:21:03;12.05;;;6.63;;
75680;SDS011;64294;49.176;16.626;2023-07-13T02:23:28;16.40;;;6.75;;
75680;SDS011;64294;49.176;16.626;2023-07-13T02:25:58;12.70;;;7.38;;
75680;SDS011;64294;49.176;16.626;2023-07-13T02:28:24;14.23;;;7.35;;
75680;SDS011;64294;49.176;16.626;2023-07-13T02:30:50;11.80;;;7.15;;
75680;SDS011;64294;49.176;16.626;2023-07-13T02:33:15;17.15;;;7.60;;
75680;SDS011;64294;49.176;16.626;2023-07-13T02:35:41;24.10;;;8.43;;
75680;SDS011;64294;49.176;16.626;2023-07-13T02:38:07;21.33;;;7.78;;
75680;SDS011;64294;49.176;16.626;2023-07-13T02:40:33;28.13;;;9.07;;
75680;SDS011;64294;49.176;16.626;2023-07-13T02:43:00;33.17;;;8.15;;
75680;SDS011;64294;49.176;16.626;2023-07-13T02:45:26;40.00;;;8.90;;
75680;SDS011;64294;49.176;16.626;2023-07-13T02:47:52;35.90;;;8.90;;
75680;SDS011;64294;49.176;16.626;2023-07-13T02:50:19;37.50;;;8.43;;
75680;SDS011;64294;49.176;16.626;2023-07-13T02:52:44;21.75;;;8.68;;
75680;SDS011;64294;49.176;16.626;2023-07-13T02:55:10;19.30;;;7.20;;
75680;SDS011;64294;49.176;16.626;2023-07-13T02:57:35;16.20;;;7.15;;
75680;SDS011;64294;49.176;16.626;2023-07-13T03:00:02;11.80;;;8.02;;
75680;SDS011;64294;49.176;16.626;2023-07-13T03:02:30;11.35;;;7.65;;
75680;SDS011;64294;49.176;16.626;2023-07-13T03:04:57;10.10;;;6.60;;
75680;SDS011;64294;49.176;16.626;2023-07-13T03:07:22;12.00;;;6.55;;
75680;SDS011;64294;49.176;16.626;2023-07-13T03:09:48;10.23;;;6.90;;
75680;SDS011;64294;49.176;16.626;2023-07-13T03:12:13;13.02;;;6.93;;
75680;SDS011;64294;49.176;16.626;2023-07-13T03:14:39;13.02;;;6.57;;
75680;SDS011;64294;49.176;16.626;2023-07-13T03:17:04;11.85;;;6.80;;
75680;SDS011;64294;49.176;16.626;2023-07-13T03:19:30;15.25;;;6.97;;
75680;SDS011;64294;49.176;16.626;2023-07-13T03:21:55;12.60;;;6.97;;
75680;SDS011;64294;49.176;16.626;2023-07-13T03:24:21;12.35;;;6.72;;
75680;SDS011;64294;49.176;16.626;2023-07-13T03:26:50;15.95;;;7.07;;
75680;SDS011;64294;49.176;16.626;2023-07-13T03:29:16;14.10;;;7.22;;
75680;SDS011;64294;49.176;16.626;2023-07-13T03:31:41;9.88;;;6.72;;
75680;SDS011;64294;49.176;16.626;2023-07-13T03:34:07;13.10;;;6.95;;
75680;SDS011;64294;49.176;16.626;2023-07-13T03:36:32;15.82;;;7.30;;
75680;SDS011;64294;49.176;16.626;2023-07-13T03:38:58;11.15;;;6.40;;
75680;SDS011;64294;49.176;16.626;2023-07-13T03:41:25;12.07;;;6.50;;
75680;SDS011;64294;49.176;16.626;2023-07-13T03:43:51;13.38;;;6.30;;
75680;SDS011;64294;49.176;16.626;2023-07-13T03:46:17;10.90;;;6.45;;
75680;SDS011;64294;49.176;16.626;2023-07-13T03:48:44;13.85;;;6.30;;
75680;SDS011;64294;49.176;16.626;2023-07-13T03:51:11;10.95;;;6.20;;
75680;SDS011;64294;49.176;16.626;2023-07-13T03:53:39;9.23;;;6.30;;
75680;SDS011;64294;49.176;16.626;2023-07-13T03:56:06;10.77;;;6.65;;
75680;SDS011;64294;49.176;16.626;2023-07-13T03:58:33;9.77;;;5.90;;
75680;SDS011;64294;49.176;16.626;2023-07-13T04:01:04;14.85;;;6.82;;
75680;SDS011;64294;49.176;16.626;2023-07-13T04:03:31;14.48;;;6.95;;
75680;SDS011;64294;49.176;16.626;2023-07-13T04:06:01;9.38;;;6.07;;
75680;SDS011;64294;49.176;16.626;2023-07-13T04:08:31;9.32;;;5.95;;
75680;SDS011;64294;49.176;16.626;2023-07-13T04:10:58;11.35;;;5.50;;
75680;SDS011;64294;49.176;16.626;2023-07-13T04:13:24;10.10;;;5.15;;
75680;SDS011;64294;49.176;16.626;2023-07-13T04:15:50;10.85;;;5.32;;
75680;SDS011;64294;49.176;16.626;2023-07-13T04:18:17;15.48;;;5.75;;
75680;SDS011;64294;49.176;16.626;2023-07-13T04:20:43;14.25;;;5.70;;
75680;SDS011;64294;49.176;16.626;2023-07-13T04:23:09;10.32;;;5.72;;
75680;SDS011;64294;49.176;16.626;2023-07-13T04:25:34;8.90;;;5.53;;
75680;SDS011;64294;49.176;16.626;2023-07-13T04:28:00;9.77;;;5.57;;
75680;SDS011;64294;49.176;16.626;2023-07-13T04:30:26;11.02;;;5.47;;
75680;SDS011;64294;49.176;16.626;2023-07-13T04:32:51;8.80;;;5.55;;
75680;SDS011;64294;49.176;16.626;2023-07-13T04:35:18;9.30;;;5.30;;
75680;SDS011;64294;49.176;16.626;2023-07-13T04:37:46;14.50;;;4.97;;
75680;SDS011;64294;49.176;16.626;2023-07-13T04:40:13;12.95;;;4.60;;
75680;SDS011;64294;49.176;16.626;2023-07-13T04:42:39;8.18;;;4.30;;
75680;SDS011;64294;49.176;16.626;2023-07-13T04:45:05;9.57;;;5.18;;
75680;SDS011;64294;49.176;16.626;2023-07-13T04:47:32;10.45;;;5.30;;
75680;SDS011;64294;49.176;16.626;2023-07-13T04:49:57;9.63;;;5.05;;
75680;SDS011;64294;49.176;16.626;2023-07-13T04:52:26;8.48;;;5.30;;
75680;SDS011;64294;49.176;16.626;2023-07-13T04:54:51;8.23;;;5.53;;
75680;SDS011;64294;49.176;16.626;2023-07-13T04:57:17;8.32;;;4.50;;
75680;SDS011;64294;49.176;16.626;2023-07-13T04:59:42;6.90;;;3.83;;
75680;SDS011;64294;49.176;16.626;2023-07-13T05:02:08;6.63;;;3.60;;
75680;SDS011;64294;49.176;16.626;2023-07-13T05:04:33;14.63;;;6.10;;
75680;SDS011;64294;49.176;16.626;2023-07-13T05:06:59;15.55;;;6.55;;
75680;SDS011;64294;49.176;16.626;2023-07-13T05:09:25;18.80;;;7.97;;
75680;SDS011;64294;49.176;16.626;2023-07-13T05:11:50;19.02;;;7.38;;
75680;SDS011;64294;49.176;16.626;2023-07-13T05:14:16;17.33;;;7.82;;
75680;SDS011;64294;49.176;16.626;2023-07-13T05:16:41;15.68;;;6.18;;
75680;SDS011;64294;49.176;16.626;2023-07-13T05:19:07;10.48;;;4.82;;
75680;SDS011;64294;49.176;16.626;2023-07-13T05:21:33;10.63;;;5.68;;
75680;SDS011;64294;49.176;16.626;2023-07-13T05:23:59;15.05;;;10.38;;
75680;SDS011;64294;49.176;16.626;2023-07-13T05:26:25;17.15;;;10.13;;
75680;SDS011;64294;49.176;16.626;2023-07-13T05:28:50;12.10;;;7.03;;
75680;SDS011;64294;49.176;16.626;2023-07-13T05:31:16;7.20;;;4.22;;
75680;SDS011;64294;49.176;16.626;2023-07-13T05:33:41;7.00;;;3.60;;
75680;SDS011;64294;49.176;16.626;2023-07-13T05:36:07;10.48;;;3.95;;
75680;SDS011;64294;49.176;16.626;2023-07-13T05:38:32;6.20;;;3.13;;
75680;SDS011;64294;49.176;16.626;2023-07-13T05:40:58;7.68;;;3.10;;
75680;SDS011;64294;49.176;16.626;2023-07-13T05:43:24;7.28;;;3.58;;
75680;SDS011;64294;49.176;16.626;2023-07-13T05:45:51;10.98;;;3.97;;
75680;SDS011;64294;49.176;16.626;2023-07-13T05:48:18;8.35;;;4.05;;
75680;SDS011;64294;49.176;16.626;2023-07-13T05:50:43;9.88;;;5.72;;
75680;SDS011;64294;49.176;16.626;2023-07-13T05:53:09;8.45;;;4.85;;
75680;SDS011;64294;49.176;16.626;2023-07-13T05:55:34;9.85;;;5.85;;
75680;SDS011;64294;49.176;16.626;2023-07-13T05:58:00;10.60;;;5.43;;
75680;SDS011;64294;49.176;16.626;2023-07-13T06:00:26;10.95;;;4.18;;
75680;SDS011;64294;49.176;16.626;2023-07-13T06:02:52;7.97;;;3.90;;
75680;SDS011;64294;49.176;16.626;2023-07-13T06:05:17;7.03;;;3.72;;
75680;SDS011;64294;49.176;16.626;2023-07-13T06:07:43;7.55;;;3.95;;
75680;SDS011;64294;49.176;16.626;2023-07-13T06:10:09;6.80;;;3.92;;
75680;SDS011;64294;49.176;16.626;2023-07-13T06:12:34;10.02;;;4.05;;
75680;SDS011;64294;49.176;16.626;2023-07-13T06:15:00;7.60;;;3.40;;
75680;SDS011;64294;49.176;16.626;2023-07-13T06:17:25;8.23;;;3.70;;
75680;SDS011;64294;49.176;16.626;2023-07-13T06:19:51;6.38;;;3.47;;
75680;SDS011;64294;49.176;16.626;2023-07-13T06:22:16;8.65;;;3.70;;
75680;SDS011;64294;49.176;16.626;2023-07-13T06:24:41;6.78;;;3.50;;
75680;SDS011;64294;49.176;16.626;2023-07-13T06:27:07;8.10;;;3.78;;
75680;SDS011;64294;49.176;16.626;2023-07-13T06:29:32;6.68;;;3.60;;
75680;SDS011;64294;49.176;16.626;2023-07-13T06:31:58;8.93;;;3.42;;
75680;SDS011;64294;49.176;16.626;2023-07-13T06:34:23;7.13;;;3.47;;
75680;SDS011;64294;49.176;16.626;2023-07-13T06:36:49;5.75;;;3.53;;
75680;SDS011;64294;49.176;16.626;2023-07-13T06:39:14;5.95;;;3.38;;
75680;SDS011;64294;49.176;16.626;2023-07-13T06:41:39;8.50;;;3.55;;
75680;SDS011;64294;49.176;16.626;2023-07-13T06:44:05;7.88;;;3.20;;
75680;SDS011;64294;49.176;16.626;2023-07-13T06:46:31;6.30;;;3.40;;
75680;SDS011;64294;49.176;16.626;2023-07-13T06:48:57;8.52;;;3.50;;
75680;SDS011;64294;49.176;16.626;2023-07-13T06:51:22;5.45;;;3.05;;
75680;SDS011;64294;49.176;16.626;2023-07-13T06:53:48;5.40;;;3.55;;
75680;SDS011;64294;49.176;16.626;2023-07-13T06:56:15;8.10;;;3.70;;
75680;SDS011;64294;49.176;16.626;2023-07-13T06:58:40;7.45;;;3.67;;
75680;SDS011;64294;49.176;16.626;2023-07-13T07:01:05;6.50;;;3.40;;
75680;SDS011;64294;49.176;16.626;2023-07-13T07:03:31;5.75;;;3.45;;
75680;SDS011;64294;49.176;16.626;2023-07-13T07:06:01;5.13;;;3.30;;
75680;SDS011;64294;49.176;16.626;2023-07-13T07:08:28;8.15;;;3.63;;
75680;SDS011;64294;49.176;16.626;2023-07-13T07:10:53;5.38;;;3.65;;
75680;SDS011;64294;49.176;16.626;2023-07-13T07:13:19;6.82;;;3.67;;
75680;SDS011;64294;49.176;16.626;2023-07-13T07:15:45;8.82;;;4.07;;
75680;SDS011;64294;49.176;16.626;2023-07-13T07:18:11;8.57;;;3.83;;
75680;SDS011;64294;49.176;16.626;2023-07-13T07:20:36;7.43;;;3.53;;
75680;SDS011;64294;49.176;16.626;2023-07-13T07:23:01;11.23;;;3.90;;
75680;SDS011;64294;49.176;16.626;2023-07-13T07:25:27;7.70;;;3.30;;
75680;SDS011;64294;49.176;16.626;2023-07-13T07:27:56;7.63;;;3.67;;
75680;SDS011;64294;49.176;16.626;2023-07-13T07:30:22;11.15;;;4.00;;
75680;SDS011;64294;49.176;16.626;2023-07-13T07:32:47;10.05;;;3.70;;
75680;SDS011;64294;49.176;16.626;2023-07-13T07:35:13;7.63;;;4.10;;
75680;SDS011;64294;49.176;16.626;2023-07-13T07:37:38;7.22;;;3.90;;
75680;SDS011;64294;49.176;16.626;2023-07-13T07:40:04;9.52;;;4.20;;
75680;SDS011;64294;49.176;16.626;2023-07-13T07:42:29;7.72;;;4.00;;
75680;SDS011;64294;49.176;16.626;2023-07-13T07:44:55;8.15;;;4.20;;
75680;SDS011;64294;49.176;16.626;2023-07-13T07:47:20;7.68;;;3.78;;
75680;SDS011;64294;49.176;16.626;2023-07-13T07:49:48;8.10;;;3.90;;
75680;SDS011;64294;49.176;16.626;2023-07-13T07:52:13;10.23;;;4.53;;
75680;SDS011;64294;49.176;16.626;2023-07-13T07:54:38;9.60;;;4.32;;
75680;SDS011;64294;49.176;16.626;2023-07-13T07:57:04;7.80;;;4.03;;
75680;SDS011;64294;49.176;16.626;2023-07-13T07:59:30;6.38;;;3.90;;
75680;SDS011;64294;49.176;16.626;2023-07-13T08:01:55;11.45;;;3.90;;
75680;SDS011;64294;49.176;16.626;2023-07-13T08:04:21;12.75;;;3.80;;
75680;SDS011;64294;49.176;16.626;2023-07-13T08:06:46;9.45;;;4.28;;
75680;SDS011;64294;49.176;16.626;2023-07-13T08:09:12;8.88;;;4.38;;
75680;SDS011;64294;49.176;16.626;2023-07-13T08:11:37;6.85;;;4.20;;
75680;SDS011;64294;49.176;16.626;2023-07-13T08:14:03;8.15;;;4.05;;
75680;SDS011;64294;49.176;16.626;2023-07-13T08:16:28;9.23;;;4.07;;
75680;SDS011;64294;49.176;16.626;2023-07-13T08:18:54;10.75;;;3.67;;
75680;SDS011;64294;49.176;16.626;2023-07-13T08:21:19;10.02;;;4.15;;
75680;SDS011;64294;49.176;16.626;2023-07-13T08:23:45;11.60;;;4.15;;
75680;SDS011;64294;49.176;16.626;2023-07-13T08:26:11;15.00;;;4.50;;
75680;SDS011;64294;49.176;16.626;2023-07-13T08:28:36;10.40;;;4.38;;
75680;SDS011;64294;49.176;16.626;2023-07-13T08:31:05;6.05;;;3.78;;
75680;SDS011;64294;49.176;16.626;2023-07-13T08:33:33;9.48;;;4.20;;
75680;SDS011;64294;49.176;16.626;2023-07-13T08:36:00;7.10;;;4.05;;
75680;SDS011;64294;49.176;16.626;2023-07-13T08:38:26;9.50;;;4.13;;
75680;SDS011;64294;49.176;16.626;2023-07-13T08:40:52;7.88;;;3.83;;
75680;SDS011;64294;49.176;16.626;2023-07-13T08:43:23;7.32;;;4.30;;
75680;SDS011;64294;49.176;16.626;2023-07-13T08:45:53;9.50;;;3.92;;
75680;SDS011;64294;49.176;16.626;2023-07-13T08:56:52;7.07;;;3.75;;
75680;SDS011;64294;49.176;16.626;2023-07-13T08:59:19;9.30;;;3.60;;
75680;SDS011;64294;49.176;16.626;2023-07-13T09:04:49;7.57;;;3.83;;
75680;SDS011;64294;49.176;16.626;2023-07-13T09:07:21;5.95;;;3.88;;
75680;SDS011;64294;49.176;16.626;2023-07-13T09:12:31;9.43;;;3.65;;
75680;SDS011;64294;49.176;16.626;2023-07-13T09:15:21;8.80;;;3.90;;
75680;SDS011;64294;49.176;16.626;2023-07-13T09:17:56;7.00;;;3.90;;
75680;SDS011;64294;49.176;16.626;2023-07-13T09:20:34;5.28;;;3.50;;
75680;SDS011;64294;49.176;16.626;2023-07-13T09:23:04;7.93;;;3.50;;
75680;SDS011;64294;49.176;16.626;2023-07-13T09:25:36;7.50;;;3.83;;
75680;SDS011;64294;49.176;16.626;2023-07-13T09:28:13;6.78;;;3.55;;
75680;SDS011;64294;49.176;16.626;2023-07-13T09:30:55;7.97;;;3.38;;
75680;SDS011;64294;49.176;16.626;2023-07-13T09:33:26;5.28;;;3.35;;
75680;SDS011;64294;49.176;16.626;2023-07-13T09:35:54;7.65;;;3.38;;
75680;SDS011;64294;49.176;16.626;2023-07-13T09:38:22;6.15;;;3.38;;
75680;SDS011;64294;49.176;16.626;2023-07-13T09:44:00;9.73;;;3.75;;
75680;SDS011;64294;49.176;16.626;2023-07-13T09:46:26;6.45;;;3.13;;
75680;SDS011;64294;49.176;16.626;2023-07-13T09:48:51;6.40;;;3.65;;
75680;SDS011;64294;49.176;16.626;2023-07-13T09:51:17;7.95;;;3.42;;
75680;SDS011;64294;49.176;16.626;2023-07-13T09:53:43;7.13;;;3.38;;
75680;SDS011;64294;49.176;16.626;2023-07-13T09:56:28;5.93;;;3.15;;
75680;SDS011;64294;49.176;16.626;2023-07-13T09:58:55;5.57;;;3.90;;
75680;SDS011;64294;49.176;16.626;2023-07-13T10:01:40;7.95;;;3.60;;
75680;SDS011;64294;49.176;16.626;2023-07-13T10:04:12;11.25;;;4.63;;
75680;SDS011;64294;49.176;16.626;2023-07-13T10:06:38;10.93;;;4.65;;
75680;SDS011;64294;49.176;16.626;2023-07-13T10:09:09;9.57;;;3.85;;
75680;SDS011;64294;49.176;16.626;2023-07-13T10:11:35;8.02;;;4.63;;
75680;SDS011;64294;49.176;16.626;2023-07-13T10:14:03;10.07;;;4.32;;
75680;SDS011;64294;49.176;16.626;2023-07-13T10:16:36;9.38;;;3.95;;
75680;SDS011;64294;49.176;16.626;2023-07-13T10:19:09;8.30;;;3.70;;
75680;SDS011;64294;49.176;16.626;2023-07-13T10:21:50;8.63;;;3.40;;
75680;SDS011;64294;49.176;16.626;2023-07-13T10:24:23;8.65;;;3.70;;
75680;SDS011;64294;49.176;16.626;2023-07-13T10:27:08;6.47;;;3.20;;
75680;SDS011;64294;49.176;16.626;2023-07-13T10:29:42;9.55;;;3.67;;
75680;SDS011;64294;49.176;16.626;2023-07-13T10:32:13;6.30;;;3.28;;
75680;SDS011;64294;49.176;16.626;2023-07-13T10:34:43;6.65;;;3.90;;
75680;SDS011;64294;49.176;16.626;2023-07-13T10:37:17;9.18;;;3.70;;
75680;SDS011;64294;49.176;16.626;2023-07-13T10:39:47;5.30;;;3.42;;
75680;SDS011;64294;49.176;16.626;2023-07-13T10:42:15;6.63;;;3.50;;
75680;SDS011;64294;49.176;16.626;2023-07-13T10:44:50;9.98;;;4.20;;
75680;SDS011;64294;49.176;16.626;2023-07-13T10:47:15;6.68;;;3.35;;
75680;SDS011;64294;49.176;16.626;2023-07-13T10:51:25;7.43;;;3.38;;
75680;SDS011;64294;49.176;16.626;2023-07-13T10:56:48;6.53;;;3.42;;
75680;SDS011;64294;49.176;16.626;2023-07-13T10:59:17;9.90;;;3.38;;
75680;SDS011;64294;49.176;16.626;2023-07-13T11:01:57;6.43;;;2.78;;
75680;SDS011;64294;49.176;16.626;2023-07-13T11:04:47;4.45;;;2.97;;
75680;SDS011;64294;49.176;16.626;2023-07-13T11:07:24;5.88;;;2.60;;
75680;SDS011;64294;49.176;16.626;2023-07-13T11:09:56;6.57;;;2.85;;
75680;SDS011;64294;49.176;16.626;2023-07-13T11:20:42;6.32;;;3.22;;
75680;SDS011;64294;49.176;16.626;2023-07-13T11:28:04;6.38;;;3.22;;
75680;SDS011;64294;49.176;16.626;2023-07-13T11:30:49;5.18;;;2.70;;
75680;SDS011;64294;49.176;16.626;2023-07-13T11:33:16;6.88;;;2.90;;
75680;SDS011;64294;49.176;16.626;2023-07-13T11:38:20;4.53;;;2.55;;
75680;SDS011;64294;49.176;16.626;2023-07-13T11:40:48;4.75;;;2.85;;
75680;SDS011;64294;49.176;16.626;2023-07-13T11:43:19;5.32;;;3.00;;
75680;SDS011;64294;49.176;16.626;2023-07-13T11:45:44;6.85;;;2.80;;
75680;SDS011;64294;49.176;16.626;2023-07-13T11:48:20;6.38;;;3.00;;
75680;SDS011;64294;49.176;16.626;2023-07-13T11:53:32;8.07;;;3.22;;
75680;SDS011;64294;49.176;16.626;2023-07-13T11:56:10;6.88;;;2.90;;
75680;SDS011;64294;49.176;16.626;2023-07-13T11:58:36;5.93;;;3.20;;
75680;SDS011;64294;49.176;16.626;2023-07-13T12:01:03;8.52;;;3.30;;
75680;SDS011;64294;49.176;16.626;2023-07-13T12:03:34;11.10;;;3.20;;
75680;SDS011;64294;49.176;16.626;2023-07-13T12:06:05;5.13;;;3.10;;
75680;SDS011;64294;49.176;16.626;2023-07-13T12:08:46;5.63;;;3.17;;
75680;SDS011;64294;49.176;16.626;2023-07-13T12:11:20;4.93;;;3.40;;
75680;SDS011;64294;49.176;16.626;2023-07-13T12:13:47;4.97;;;3.17;;
75680;SDS011;64294;49.176;16.626;2023-07-13T12:16:16;5.03;;;3.25;;
75680;SDS011;64294;49.176;16.626;2023-07-13T12:18:48;7.20;;;3.00;;
75680;SDS011;64294;49.176;16.626;2023-07-13T12:21:16;5.00;;;3.38;;
75680;SDS011;64294;49.176;16.626;2023-07-13T12:23:44;8.10;;;3.28;;
75680;SDS011;64294;49.176;16.626;2023-07-13T12:26:12;4.57;;;3.05;;
75680;SDS011;64294;49.176;16.626;2023-07-13T12:28:39;4.82;;;3.28;;
75680;SDS011;64294;49.176;16.626;2023-07-13T12:34:10;8.40;;;3.45;;
75680;SDS011;64294;49.176;16.626;2023-07-13T12:36:58;4.40;;;3.13;;
75680;SDS011;64294;49.176;16.626;2023-07-13T12:39:32;5.05;;;3.33;;
75680;SDS011;64294;49.176;16.626;2023-07-13T12:44:59;6.63;;;3.40;;
75680;SDS011;64294;49.176;16.626;2023-07-13T12:47:29;5.60;;;3.15;;
75680;SDS011;64294;49.176;16.626;2023-07-13T12:49:59;6.63;;;3.42;;
75680;SDS011;64294;49.176;16.626;2023-07-13T12:52:33;6.68;;;2.90;;
75680;SDS011;64294;49.176;16.626;2023-07-13T12:55:04;4.63;;;2.88;;
75680;SDS011;64294;49.176;16.626;2023-07-13T12:57:40;5.38;;;2.90;;
75680;SDS011;64294;49.176;16.626;2023-07-13T13:03:05;8.90;;;2.83;;
75680;SDS011;64294;49.176;16.626;2023-07-13T13:05:46;6.28;;;3.10;;
75680;SDS011;64294;49.176;16.626;2023-07-13T13:08:12;5.68;;;3.10;;
75680;SDS011;64294;49.176;16.626;2023-07-13T13:10:38;4.40;;;2.47;;
75680;SDS011;64294;49.176;16.626;2023-07-13T13:13:04;3.90;;;2.80;;
75680;SDS011;64294;49.176;16.626;2023-07-13T13:15:29;5.10;;;2.88;;
75680;SDS011;64294;49.176;16.626;2023-07-13T13:17:58;2.88;;;2.45;;
75680;SDS011;64294;49.176;16.626;2023-07-13T13:20:23;7.55;;;3.10;;
75680;SDS011;64294;49.176;16.626;2023-07-13T13:22:53;5.07;;;2.80;;
75680;SDS011;64294;49.176;16.626;2023-07-13T13:25:19;4.75;;;3.03;;
75680;SDS011;64294;49.176;16.626;2023-07-13T13:27:44;5.10;;;2.80;;
75680;SDS011;64294;49.176;16.626;2023-07-13T13:30:14;5.38;;;2.40;;
75680;SDS011;64294;49.176;16.626;2023-07-13T13:32:43;5.10;;;2.80;;
75680;SDS011;64294;49.176;16.626;2023-07-13T13:35:13;5.00;;;2.70;;
75680;SDS011;64294;49.176;16.626;2023-07-13T13:37:40;4.22;;;2.63;;
75680;SDS011;64294;49.176;16.626;2023-07-13T13:40:15;5.82;;;2.65;;
75680;SDS011;64294;49.176;16.626;2023-07-13T13:42:52;4.10;;;2.90;;
75680;SDS011;64294;49.176;16.626;2023-07-13T13:45:19;4.82;;;2.42;;
75680;SDS011;64294;49.176;16.626;2023-07-13T13:47:49;3.65;;;2.38;;
75680;SDS011;64294;49.176;16.626;2023-07-13T13:50:15;3.45;;;2.58;;
75680;SDS011;64294;49.176;16.626;2023-07-13T13:52:42;3.08;;;2.45;;
75680;SDS011;64294;49.176;16.626;2023-07-13T13:55:15;4.18;;;2.80;;
75680;SDS011;64294;49.176;16.626;2023-07-13T13:57:46;5.63;;;2.80;;
75680;SDS011;64294;49.176;16.626;2023-07-13T14:00:12;6.20;;;2.80;;
75680;SDS011;64294;49.176;16.626;2023-07-13T14:02:43;5.35;;;2.75;;
75680;SDS011;64294;49.176;16.626;2023-07-13T14:05:23;8.15;;;2.60;;
75680;SDS011;64294;49.176;16.626;2023-07-13T14:07:53;3.55;;;2.50;;
75680;SDS011;64294;49.176;16.626;2023-07-13T14:10:19;6.10;;;2.53;;
75680;SDS011;64294;49.176;16.626;2023-07-13T14:12:45;5.53;;;2.38;;
75680;SDS011;64294;49.176;16.626;2023-07-13T14:17:47;5.65;;;2.53;;
75680;SDS011;64294;49.176;16.626;2023-07-13T14:20:15;2.83;;;2.35;;
75680;SDS011;64294;49.176;16.626;2023-07-13T14:22:41;4.13;;;2.75;;
75680;SDS011;64294;49.176;16.626;2023-07-13T14:25:10;3.85;;;2.38;;
75680;SDS011;64294;49.176;16.626;2023-07-13T14:27:37;7.00;;;2.50;;
75680;SDS011;64294;49.176;16.626;2023-07-13T14:30:03;5.25;;;2.78;;
75680;SDS011;64294;49.176;16.626;2023-07-13T14:32:30;10.02;;;3.97;;
75680;SDS011;64294;49.176;16.626;2023-07-13T14:34:55;6.20;;;4.07;;
75680;SDS011;64294;49.176;16.626;2023-07-13T14:37:22;8.60;;;4.80;;
75680;SDS011;64294;49.176;16.626;2023-07-13T14:39:48;7.53;;;4.78;;
75680;SDS011;64294;49.176;16.626;2023-07-13T14:42:16;9.23;;;4.38;;
75680;SDS011;64294;49.176;16.626;2023-07-13T14:44:42;6.00;;;4.35;;
75680;SDS011;64294;49.176;16.626;2023-07-13T14:47:07;7.47;;;4.57;;
75680;SDS011;64294;49.176;16.626;2023-07-13T14:52:02;7.40;;;4.30;;
75680;SDS011;64294;49.176;16.626;2023-07-13T14:54:40;8.65;;;4.68;;
75680;SDS011;64294;49.176;16.626;2023-07-13T14:57:09;5.82;;;4.40;;
75680;SDS011;64294;49.176;16.626;2023-07-13T15:02:32;8.00;;;5.30;;
75680;SDS011;64294;49.176;16.626;2023-07-13T15:04:58;8.30;;;4.50;;
75680;SDS011;64294;49.176;16.626;2023-07-13T15:07:24;8.00;;;4.15;;
75680;SDS011;64294;49.176;16.626;2023-07-13T15:09:50;9.20;;;4.68;;
75680;SDS011;64294;49.176;16.626;2023-07-13T15:12:16;9.00;;;4.47;;
75680;SDS011;64294;49.176;16.626;2023-07-13T15:14:43;6.90;;;4.43;;
75680;SDS011;64294;49.176;16.626;2023-07-13T15:20:06;9.13;;;4.57;;
75680;SDS011;64294;49.176;16.626;2023-07-13T15:22:36;6.30;;;4.70;;
75680;SDS011;64294;49.176;16.626;2023-07-13T15:25:02;6.88;;;4.80;;
75680;SDS011;64294;49.176;16.626;2023-07-13T15:27:30;6.53;;;4.95;;
75680;SDS011;64294;49.176;16.626;2023-07-13T15:29:55;8.90;;;5.10;;
75680;SDS011;64294;49.176;16.626;2023-07-13T15:32:20;10.55;;;5.28;;
75680;SDS011;64294;49.176;16.626;2023-07-13T15:34:46;6.93;;;4.95;;